Time,TemperatureF,DewpointF,PressureIn,WindDirection,WindDirectionDegrees,WindSpeedMPH,WindSpeedGustMPH,Humidity,HourlyPrecipIn,Conditions,Clouds,dailyrainin,SoftwareType,DateUTC
2013-03-24 00:03:00,44.0,-99.9,29.99,NNE,13,6.0,16.0,-999,-99.99,,,-99.99,,2013-03-24 04:03:00,
2013-03-24 00:13:00,44.0,-99.9,29.99,North,-999,-999.0,-999.0,-999,-99.99,,,-99.99,,2013-03-24 04:13:00,
2013-03-24 00:23:00,-999.0,-99.9,29.99,NNE,31,5.0,10.0,-999,-99.99,,,-99.99,,2013-03-24 04:23:00,
2013-03-24 00:33:00,43.0,-99.9,29.99,NE,55,4.0,11.0,-999,-99.99,,,-99.99,,2013-03-24 04:33:00,
2013-03-24 00:43:00,-999.0,-99.9,29.99,NNE,14,4.0,8.0,-999,-99.99,,,-99.99,,2013-03-24 04:43:00,
2013-03-24 00:53:00,-999.0,-99.9,29.99,NE,34,6.0,9.0,-999,-99.99,,,-99.99,,2013-03-24 04:53:00,
2013-03-24 01:03:00,42.0,-99.9,29.99,NNE,32,6.0,10.0,-999,-99.99,,,-99.99,,2013-03-24 05:03:00,
2013-03-24 01:13:00,42.0,-99.9,29.99,NNE,33,7.0,12.0,-999,-99.99,,,-99.99,,2013-03-24 05:13:00,
2013-03-24 01:23:00,41.0,-99.9,29.99,North,-999,-999.0,-999.0,-999,-99.99,,,-99.99,,2013-03-24 05:23:00,
2013-03-24 01:33:00,41.0,-99.9,29.99,NNE,32,7.0,10.0,-999,-99.99,,,-99.99,,2013-03-24 05:33:00,
2013-03-24 01:43:00,-999.0,-99.9,29.99,NNE,30,4.0,10.0,-999,-99.99,,,-99.99,,2013-03-24 05:43:00,
2013-03-24 01:52:00,-999.0,-99.9,29.98,NNE,33,6.0,10.0,-999,-99.99,,,-99.99,,2013-03-24 05:52:00,
2013-03-24 02:02:00,40.0,-99.9,29.98,NNE,26,6.0,9.0,-999,-99.99,,,-99.99,,2013-03-24 06:02:00,
2013-03-24 02:12:00,40.0,-99.9,30.00,NE,40,3.0,11.0,-999,-99.99,,,-99.99,,2013-03-24 06:12:00,
2013-03-24 02:22:00,-999.0,-99.9,30.00,ENE,75,3.0,7.0,-999,-99.99,,,-99.99,,2013-03-24 06:22:00,
2013-03-24 02:32:00,40.0,-99.9,29.99,NNE,24,3.0,5.0,-999,-99.99,,,-99.99,,2013-03-24 06:32:00,
2013-03-24 02:43:00,-999.0,-99.9,30.00,North,1,3.0,8.0,-999,-99.99,,,-99.99,,2013-03-24 06:43:00,
2013-03-24 02:52:00,40.0,-99.9,29.99,North,-999,-999.0,-999.0,-999,-99.99,,,-99.99,,2013-03-24 06:52:00,
2013-03-24 03:02:00,39.0,-99.9,29.98,North,3,4.0,8.0,-999,-99.99,,,-99.99,,2013-03-24 07:02:00,
2013-03-24 03:12:00,39.0,-99.9,29.98,North,-999,-999.0,-999.0,-999,-99.99,,,-99.99,,2013-03-24 07:12:00,
2013-03-24 03:22:00,-999.0,-99.9,29.98,North,9,4.0,8.0,-999,-99.99,,,-99.99,,2013-03-24 07:22:00,
2013-03-24 03:32:00,39.0,-99.9,29.98,NNE,23,3.0,9.0,-999,-99.99,,,-99.99,,2013-03-24 07:32:00,
2013-03-24 03:42:00,39.0,-99.9,29.98,NNE,14,4.0,7.0,-999,-99.99,,,-99.99,,2013-03-24 07:42:00,
2013-03-24 03:52:00,-999.0,-99.9,29.98,North,2,5.0,9.0,-999,-99.99,,,-99.99,,2013-03-24 07:52:00,
2013-03-24 04:03:00,39.0,-99.9,29.99,NNE,12,1.0,7.0,-999,-99.99,,,-99.99,,2013-03-24 08:03:00,
2013-03-24 04:12:00,-999.0,-99.9,29.99,North,3,1.0,5.0,-999,-99.99,,,-99.99,,2013-03-24 08:12:00,
2013-03-24 04:22:00,39.0,-99.9,30.00,North,-999,-999.0,-999.0,-999,-99.99,,,-99.99,,2013-03-24 08:22:00,
2013-03-24 04:32:00,38.0,-99.9,30.00,WNW,294,4.0,5.0,-999,-99.99,,,-99.99,,2013-03-24 08:32:00,
2013-03-24 04:42:00,38.0,-99.9,30.00,NW,307,2.0,3.0,-999,-99.99,,,-99.99,,2013-03-24 08:42:00,
2013-03-24 04:52:00,38.0,-99.9,30.00,North,-999,-999.0,-999.0,-999,-99.99,,,-99.99,,2013-03-24 08:52:00,
2013-03-24 05:02:00,37.0,-99.9,30.00,WNW,293,1.0,3.0,-999,-99.99,,,-99.99,,2013-03-24 09:02:00,
2013-03-24 05:12:00,37.0,-99.9,30.00,North,-999,-999.0,-999.0,-999,-99.99,,,-99.99,,2013-03-24 09:12:00,
2013-03-24 05:22:00,38.0,-99.9,30.00,North,-999,-999.0,-999.0,-999,-99.99,,,-99.99,,2013-03-24 09:22:00,
2013-03-24 05:33:00,38.0,-99.9,30.00,NNW,330,3.0,5.0,-999,-99.99,,,-99.99,,2013-03-24 09:33:00,
2013-03-24 05:43:00,38.0,-99.9,30.00,North,-999,-999.0,-999.0,-999,-99.99,,,-99.99,,2013-03-24 09:43:00,
2013-03-24 05:53:00,-999.0,-99.9,29.99,WNW,291,1.0,7.0,-999,-99.99,,,-99.99,,2013-03-24 09:53:00,
2013-03-24 06:03:00,38.0,-99.9,29.99,North,359,5.0,9.0,-999,-99.99,,,-99.99,,2013-03-24 10:03:00,
2013-03-24 06:13:00,38.0,-99.9,29.98,North,8,6.0,9.0,-999,-99.99,,,-99.99,,2013-03-24 10:13:00,
2013-03-24 06:23:00,38.0,-99.9,29.97,North,-999,-999.0,-999.0,-999,-99.99,,,-99.99,,2013-03-24 10:23:00,
2013-03-24 06:33:00,38.0,-99.9,29.97,North,9,4.0,8.0,-999,-99.99,,,-99.99,,2013-03-24 10:33:00,
2013-03-24 06:42:00,-999.0,-99.9,29.98,North,358,3.0,5.0,-999,-99.99,,,-99.99,,2013-03-24 10:42:00,
2013-03-24 06:53:00,-999.0,-99.9,29.98,NE,36,3.0,4.0,-999,-99.99,,,-99.99,,2013-03-24 10:53:00,
2013-03-24 07:03:00,38.0,-99.9,29.98,NNE,29,3.0,5.0,-999,-99.99,,,-99.99,,2013-03-24 11:03:00,
2013-03-24 07:12:00,38.0,-99.9,29.98,NE,44,2.0,4.0,-999,-99.99,,,-99.99,,2013-03-24 11:12:00,
2013-03-24 07:22:00,38.0,-99.9,29.98,North,-999,-999.0,-999.0,-999,-99.99,,,-99.99,,2013-03-24 11:22:00,
2013-03-24 07:33:00,37.0,-99.9,29.99,WSW,242,2.0,3.0,-999,-99.99,,,-99.99,,2013-03-24 11:33:00,
2013-03-24 07:43:00,-999.0,-99.9,29.99,West,275,2.0,4.0,-999,-99.99,,,-99.99,,2013-03-24 11:43:00,
2013-03-24 07:52:00,37.0,-99.9,29.99,North,-999,-999.0,-999.0,-999,-99.99,,,-99.99,,2013-03-24 11:52:00,
2013-03-24 08:03:00,37.0,-99.9,29.99,NW,306,4.0,5.0,-999,-99.99,,,-99.99,,2013-03-24 12:03:00,
2013-03-24 08:13:00,37.0,-99.9,29.99,North,-999,-999.0,-999.0,-999,-99.99,,,-99.99,,2013-03-24 12:13:00,
2013-03-24 08:23:00,-999.0,-99.9,29.97,NNE,19,5.0,8.0,-999,-99.99,,,-99.99,,2013-03-24 12:23:00,
2013-03-24 08:33:00,38.0,-99.9,29.98,North,4,4.0,6.0,-999,-99.99,,,-99.99,,2013-03-24 12:33:00,
2013-03-24 08:42:00,38.0,-99.9,29.99,North,1,4.0,6.0,-999,-99.99,,,-99.99,,2013-03-24 12:42:00,
2013-03-24 08:53:00,39.0,-99.9,29.99,North,-999,-999.0,-999.0,-999,-99.99,,,-99.99,,2013-03-24 12:53:00,
2013-03-24 09:03:00,39.0,-99.9,29.98,NNE,12,2.0,4.0,-999,-99.99,,,-99.99,,2013-03-24 13:03:00,
2013-03-24 09:13:00,-999.0,-99.9,29.98,NNE,23,6.0,8.0,-999,-99.99,,,-99.99,,2013-03-24 13:13:00,
2013-03-24 09:23:00,39.0,-99.9,29.97,North,-999,-999.0,-999.0,-999,-99.99,,,-99.99,,2013-03-24 13:23:00,
2013-03-24 09:33:00,39.0,-99.9,29.95,NNE,25,5.0,12.0,-999,-99.99,,,-99.99,,2013-03-24 13:33:00,
2013-03-24 09:43:00,39.0,-99.9,29.95,North,9,5.0,11.0,-999,-99.99,,,-99.99,,2013-03-24 13:43:00,
2013-03-24 09:53:00,39.0,-99.9,29.95,North,-999,-999.0,-999.0,-999,-99.99,,,-99.99,,2013-03-24 13:53:00,
2013-03-24 10:03:00,39.0,-99.9,29.94,NNE,31,6.0,9.0,-999,-99.99,,,-99.99,,2013-03-24 14:03:00,
2013-03-24 10:13:00,-999.0,-99.9,29.93,NNE,33,4.0,9.0,-999,-99.99,,,-99.99,,2013-03-24 14:13:00,
2013-03-24 10:22:00,39.0,-99.9,29.93,North,-999,-999.0,-999.0,-999,-99.99,,,-99.99,,2013-03-24 14:22:00,
2013-03-24 10:33:00,40.0,-99.9,29.93,ENE,59,4.0,10.0,-999,-99.99,,,-99.99,,2013-03-24 14:33:00,
2013-03-24 10:43:00,40.0,-99.9,29.92,North,-999,-999.0,-999.0,-999,-99.99,,,-99.99,,2013-03-24 14:43:00,
2013-03-24 10:53:00,-999.0,-99.9,29.92,ENE,68,5.0,9.0,-999,-99.99,,,-99.99,,2013-03-24 14:53:00,
2013-03-24 11:02:00,41.0,-99.9,29.92,NE,45,4.0,8.0,-999,-99.99,,,-99.99,,2013-03-24 15:02:00,
2013-03-24 11:13:00,40.0,-99.9,29.91,NE,38,6.0,10.0,-999,-99.99,,,-99.99,,2013-03-24 15:13:00,
2013-03-24 11:23:00,40.0,-99.9,29.91,North,-999,-999.0,-999.0,-999,-99.99,,,-99.99,,2013-03-24 15:23:00,
2013-03-24 11:33:00,41.0,-99.9,29.92,East,87,2.0,9.0,-999,-99.99,,,-99.99,,2013-03-24 15:33:00,
2013-03-24 11:43:00,-999.0,-99.9,29.92,East,98,7.0,10.0,-999,-99.99,,,-99.99,,2013-03-24 15:43:00,
2013-03-24 11:53:00,41.0,-99.9,29.91,North,-999,-999.0,-999.0,-999,-99.99,,,-99.99,,2013-03-24 15:53:00,
2013-03-24 12:03:00,41.0,-99.9,29.91,NNE,21,2.0,7.0,-999,-99.99,,,-99.99,,2013-03-24 16:03:00,
2013-03-24 12:13:00,41.0,-99.9,29.90,ENE,67,4.0,6.0,-999,-99.99,,,-99.99,,2013-03-24 16:13:00,
2013-03-24 12:23:00,41.0,-99.9,29.90,North,-999,-999.0,-999.0,-999,-99.99,,,-99.99,,2013-03-24 16:23:00,
2013-03-24 12:33:00,41.0,-99.9,29.89,NE,53,4.0,8.0,-999,-99.99,,,-99.99,,2013-03-24 16:33:00,
2013-03-24 12:43:00,-999.0,-99.9,29.88,ENE,65,5.0,7.0,-999,-99.99,,,-99.99,,2013-03-24 16:43:00,
2013-03-24 12:53:00,-999.0,-99.9,29.87,NE,52,2.0,5.0,-999,-99.99,,,-99.99,,2013-03-24 16:53:00,
2013-03-24 13:03:00,41.0,-99.9,29.86,ESE,106,4.0,7.0,-999,-99.99,,,-99.99,,2013-03-24 17:03:00,
2013-03-24 13:12:00,41.0,-99.9,29.86,North,-999,-999.0,-999.0,-999,-99.99,,,-99.99,,2013-03-24 17:12:00,
2013-03-24 13:23:00,41.0,-99.9,29.85,North,-999,-999.0,-999.0,-999,-99.99,,,-99.99,,2013-03-24 17:23:00,
2013-03-24 13:33:00,42.0,-99.9,29.84,NE,54,5.0,6.0,-999,-99.99,,,-99.99,,2013-03-24 17:33:00,
2013-03-24 13:43:00,42.0,-99.9,29.83,SE,130,3.0,6.0,-999,-99.99,,,-99.99,,2013-03-24 17:43:00,
2013-03-24 13:53:00,-999.0,-99.9,29.83,ESE,111,3.0,7.0,-999,-99.99,,,-99.99,,2013-03-24 17:53:00,
2013-03-24 14:03:00,42.0,-99.9,29.82,SE,134,5.0,8.0,-999,-99.99,,,-99.99,,2013-03-24 18:03:00,
2013-03-24 14:13:00,-999.0,-99.9,29.81,ENE,66,4.0,8.0,-999,-99.99,,,-99.99,,2013-03-24 18:13:00,
2013-03-24 14:22:00,42.0,-99.9,29.79,North,-999,-999.0,-999.0,-999,-99.99,,,-99.99,,2013-03-24 18:22:00,
2013-03-24 14:33:00,42.0,-99.9,29.79,ENE,70,5.0,8.0,-999,-99.99,,,-99.99,,2013-03-24 18:33:00,
2013-03-24 14:43:00,-999.0,-99.9,29.78,ENE,61,2.0,5.0,-999,-99.99,,,-99.99,,2013-03-24 18:43:00,
2013-03-24 14:53:00,-999.0,-99.9,29.78,ESE,122,7.0,8.0,-999,-99.99,,,-99.99,,2013-03-24 18:53:00,
2013-03-24 15:03:00,42.0,-99.9,29.76,SE,136,4.0,8.0,-999,-99.99,,,-99.99,,2013-03-24 19:03:00,
2013-03-24 15:12:00,43.0,-99.9,29.75,East,89,4.0,8.0,-999,-99.99,,,-99.99,,2013-03-24 19:12:00,
2013-03-24 15:23:00,-999.0,-99.9,29.75,ESE,106,4.0,9.0,-999,-99.99,,,-99.99,,2013-03-24 19:23:00,
2013-03-24 15:33:00,43.0,-99.9,29.74,ESE,113,4.0,7.0,-999,-99.99,,,-99.99,,2013-03-24 19:33:00,
2013-03-24 15:43:00,-999.0,-99.9,29.74,East,99,6.0,7.0,-999,-99.99,,,-99.99,,2013-03-24 19:43:00,
2013-03-24 15:53:00,42.0,-99.9,29.73,North,-999,-999.0,-999.0,-999,-99.99,,,-99.99,,2013-03-24 19:53:00,
2013-03-24 16:03:00,42.0,-99.9,29.73,East,94,3.0,8.0,-999,-99.99,,,-99.99,,2013-03-24 20:03:00,
2013-03-24 16:13:00,42.0,-99.9,29.73,ENE,59,5.0,7.0,-999,-99.99,,,-99.99,,2013-03-24 20:13:00,
2013-03-24 16:22:00,-999.0,-99.9,29.73,NE,55,5.0,8.0,-999,-99.99,,,-99.99,,2013-03-24 20:22:00,
2013-03-24 16:33:00,42.0,-99.9,29.72,East,85,3.0,8.0,-999,-99.99,,,-99.99,,2013-03-24 20:33:00,
2013-03-24 16:43:00,43.0,-99.9,29.72,North,-999,-999.0,-999.0,-999,-99.99,,,-99.99,,2013-03-24 20:43:00,
2013-03-24 16:53:00,-999.0,-99.9,29.71,ENE,61,6.0,9.0,-999,-99.99,,,-99.99,,2013-03-24 20:53:00,
2013-03-24 17:03:00,43.0,-99.9,29.71,NNE,22,4.0,9.0,-999,-99.99,,,-99.99,,2013-03-24 21:03:00,
2013-03-24 17:12:00,43.0,-99.9,29.71,North,-999,-999.0,-999.0,-999,-99.99,,,-99.99,,2013-03-24 21:12:00,
2013-03-24 17:23:00,43.0,-99.9,29.71,North,-999,-999.0,-999.0,-999,-99.99,,,-99.99,,2013-03-24 21:23:00,
2013-03-24 17:33:00,43.0,-99.9,29.71,NE,52,6.0,8.0,-999,-99.99,,,-99.99,,2013-03-24 21:33:00,
2013-03-24 17:43:00,43.0,-99.9,29.72,ENE,66,4.0,7.0,-999,-99.99,,,-99.99,,2013-03-24 21:43:00,
2013-03-24 17:53:00,42.0,-99.9,29.72,North,-999,-999.0,-999.0,-999,-99.99,,,-99.99,,2013-03-24 21:53:00,
2013-03-24 18:03:00,43.0,-99.9,29.72,NE,41,2.0,6.0,-999,-99.99,,,-99.99,,2013-03-24 22:03:00,
2013-03-24 18:13:00,-999.0,-99.9,29.73,East,99,3.0,7.0,-999,-99.99,,,-99.99,,2013-03-24 22:13:00,
2013-03-24 18:23:00,42.0,-99.9,29.73,North,-999,-999.0,-999.0,-999,-99.99,,,-99.99,,2013-03-24 22:23:00,
2013-03-24 18:33:00,43.0,-99.9,29.73,ESE,103,2.0,7.0,-999,-99.99,,,-99.99,,2013-03-24 22:33:00,
2013-03-24 18:43:00,42.0,-99.9,29.73,East,86,6.0,9.0,-999,-99.99,,,-99.99,,2013-03-24 22:43:00,
2013-03-24 18:53:00,-999.0,-99.9,29.73,SE,128,2.0,11.0,-999,-99.99,,,-99.99,,2013-03-24 22:53:00,
2013-03-24 19:03:00,40.0,-99.9,29.73,NNW,338,4.0,7.0,-999,-99.99,,,-99.99,,2013-03-24 23:03:00,
2013-03-24 19:12:00,-999.0,-99.9,29.73,North,357,4.0,5.0,-999,-99.99,,,-99.99,,2013-03-24 23:12:00,
2013-03-24 19:23:00,-999.0,-99.9,29.74,ESE,105,5.0,7.0,-999,-99.99,,,-99.99,,2013-03-24 23:23:00,
2013-03-24 19:32:00,40.0,-99.9,29.73,ESE,111,4.0,7.0,-999,-99.99,,,-99.99,,2013-03-24 23:32:00,
2013-03-24 19:43:00,-999.0,-99.9,29.73,SE,129,7.0,10.0,-999,-99.99,,,-99.99,,2013-03-24 23:43:00,
2013-03-24 19:53:00,38.0,-99.9,29.73,North,-999,-999.0,-999.0,-999,-99.99,,,-99.99,,2013-03-24 23:53:00,
2013-03-24 20:02:00,38.0,-99.9,29.74,East,97,5.0,9.0,-999,-99.99,,,-99.99,,2013-03-25 00:02:00,
2013-03-24 20:12:00,38.0,-99.9,29.73,East,98,5.0,8.0,-999,-99.99,,,-99.99,,2013-03-25 00:12:00,
2013-03-24 20:23:00,-999.0,-99.9,29.73,East,87,4.0,9.0,-999,-99.99,,,-99.99,,2013-03-25 00:23:00,
2013-03-24 20:33:00,37.0,-99.9,29.73,SE,141,9.0,13.0,-999,-99.99,,,-99.99,,2013-03-25 00:33:00,
2013-03-24 20:43:00,36.0,-99.9,29.73,North,-999,-999.0,-999.0,-999,-99.99,,,-99.99,,2013-03-25 00:43:00,
2013-03-24 20:53:00,35.0,-99.9,29.73,North,-999,-999.0,-999.0,-999,-99.99,,,-99.99,,2013-03-25 00:53:00,
2013-03-24 21:02:00,35.0,-99.9,29.73,SE,140,6.0,9.0,-999,-99.99,,,-99.99,,2013-03-25 01:02:00,
2013-03-24 21:12:00,35.0,-99.9,29.73,East,98,5.0,6.0,-999,-99.99,,,-99.99,,2013-03-25 01:12:00,
2013-03-24 21:22:00,35.0,-99.9,29.72,North,-999,-999.0,-999.0,-999,-99.99,,,-99.99,,2013-03-25 01:22:00,
2013-03-24 21:32:00,35.0,-99.9,29.72,East,81,3.0,6.0,-999,-99.99,,,-99.99,,2013-03-25 01:32:00,
2013-03-24 21:42:00,35.0,-99.9,29.71,North,-999,-999.0,-999.0,-999,-99.99,,,-99.99,,2013-03-25 01:42:00,
2013-03-24 21:53:00,-999.0,-99.9,29.69,East,89,3.0,7.0,-999,-99.99,,,-99.99,,2013-03-25 01:53:00,
2013-03-24 22:02:00,35.0,-99.9,29.69,NE,55,1.0,8.0,-999,-99.99,,,-99.99,,2013-03-25 02:02:00,
2013-03-24 22:12:00,35.0,-99.9,29.70,North,-999,-999.0,-999.0,-999,-99.99,,,-99.99,,2013-03-25 02:12:00,
2013-03-24 22:23:00,35.0,-99.9,29.69,North,-999,-999.0,-999.0,-999,-99.99,,,-99.99,,2013-03-25 02:23:00,
2013-03-24 22:33:00,35.0,-99.9,29.70,East,100,3.0,6.0,-999,-99.99,,,-99.99,,2013-03-25 02:33:00,
2013-03-24 22:43:00,-999.0,-99.9,29.70,NE,45,2.0,2.0,-999,-99.99,,,-99.99,,2013-03-25 02:43:00,
2013-03-24 22:52:00,-999.0,-99.9,29.69,ENE,66,3.0,5.0,-999,-99.99,,,-99.99,,2013-03-25 02:52:00,
2013-03-24 23:03:00,36.0,-99.9,29.69,SE,138,3.0,5.0,-999,-99.99,,,-99.99,,2013-03-25 03:03:00,
2013-03-24 23:13:00,36.0,-99.9,29.70,North,-999,-999.0,-999.0,-999,-99.99,,,-99.99,,2013-03-25 03:13:00,
2013-03-24 23:23:00,-999.0,-99.9,29.70,SE,138,4.0,9.0,-999,-99.99,,,-99.99,,2013-03-25 03:23:00,
2013-03-24 23:34:00,36.0,-99.9,29.70,ESE,122,4.0,8.0,-999,-99.99,,,-99.99,,2013-03-25 03:34:00,
2013-03-24 23:43:00,35.0,-99.9,29.68,SE,130,6.0,7.0,-999,-99.99,,,-99.99,,2013-03-25 03:43:00,
2013-03-24 23:53:00,-999.0,-99.9,29.68,ESE,123,4.0,6.0,-999,-99.99,,,-99.99,,2013-03-25 03:53:00,